createdAt,value
2019-02-08T00:01:53.303Z,39.40
2019-02-08T00:04:31.202Z,35.70
2019-02-08T00:07:02.559Z,45.20
2019-02-08T00:09:31.254Z,39.03
2019-02-08T00:12:03.444Z,37.27
2019-02-08T00:14:31.888Z,35.43
2019-02-08T00:17:00.368Z,40.30
2019-02-08T00:19:31.445Z,32.80
2019-02-08T00:22:09.680Z,35.10
2019-02-08T00:24:41.138Z,29.60
2019-02-08T00:27:09.651Z,29.67
2019-02-08T00:29:42.587Z,28.83
2019-02-08T00:32:16.977Z,30.03
2019-02-08T00:34:51.148Z,36.40
2019-02-08T00:37:20.074Z,32.90
2019-02-08T00:39:54.429Z,37.80
2019-02-08T00:42:28.712Z,32.33
2019-02-08T00:45:08.873Z,29.13
2019-02-08T00:47:40.178Z,34.13
2019-02-08T00:50:16.510Z,34.20
2019-02-08T00:52:54.407Z,27.70
2019-02-08T00:55:22.924Z,33.20
2019-02-08T00:57:51.616Z,34.50
2019-02-08T01:00:22.817Z,33.70
2019-02-08T01:02:53.477Z,36.40
2019-02-08T01:05:28.079Z,31.17
2019-02-08T01:08:00.561Z,28.43
2019-02-08T01:10:35.790Z,30.47
2019-02-08T01:13:04.454Z,37.33
2019-02-08T01:15:35.295Z,29.57
2019-02-08T01:18:06.381Z,28.60
2019-02-08T01:20:37.605Z,31.43
2019-02-08T01:23:09.163Z,32.37
2019-02-08T01:25:39.216Z,31.43
2019-02-08T01:28:12.246Z,31.83
2019-02-08T01:30:43.705Z,31.23
2019-02-08T01:33:16.865Z,37.00
2019-02-08T01:35:47.950Z,36.90
2019-02-08T01:38:16.372Z,31.00
2019-02-08T01:40:44.801Z,30.33
2019-02-08T01:43:15.765Z,27.57
2019-02-08T01:45:45.829Z,27.83
2019-02-08T01:48:26.357Z,25.90
2019-02-08T01:50:56.753Z,30.53
2019-02-08T01:53:25.201Z,29.17
2019-02-08T01:56:01.024Z,29.10
2019-02-08T01:58:29.450Z,29.57
2019-02-08T02:01:02.514Z,29.30
2019-02-08T02:03:36.144Z,30.97
2019-02-08T02:06:16.442Z,22.10
2019-02-08T02:08:47.865Z,28.30
2019-02-08T02:11:19.445Z,27.23
2019-02-08T02:13:49.507Z,26.83
2019-02-08T02:16:26.381Z,30.23
2019-02-08T02:18:56.445Z,26.20
2019-02-08T02:21:29.558Z,31.10
2019-02-08T02:23:58.765Z,30.90
2019-02-08T02:26:33.194Z,26.00
2019-02-08T02:29:04.886Z,26.57
2019-02-08T02:31:33.373Z,26.93
2019-02-08T02:34:01.794Z,28.27
2019-02-08T02:36:34.774Z,26.93
2019-02-08T02:39:10.764Z,28.20
2019-02-08T02:41:53.854Z,30.13
2019-02-08T02:44:23.981Z,29.33
2019-02-08T02:46:52.397Z,30.70
2019-02-08T02:49:24.462Z,34.73
2019-02-08T02:51:54.530Z,29.63
2019-02-08T02:54:25.912Z,26.97
2019-02-08T02:56:56.984Z,29.73
2019-02-08T02:59:25.415Z,29.13
2019-02-08T03:01:56.794Z,31.10
2019-02-08T03:04:28.219Z,31.40
2019-02-08T03:06:59.336Z,27.50
2019-02-08T03:09:33.395Z,26.73
2019-02-08T03:12:01.823Z,29.57
2019-02-08T03:14:33.525Z,28.70
2019-02-08T03:17:09.158Z,29.30
2019-02-08T03:19:40.805Z,23.60
2019-02-08T03:22:10.862Z,27.50
2019-02-08T03:24:45.062Z,30.13
2019-02-08T03:27:17.982Z,27.53
2019-02-08T03:29:51.014Z,24.73
2019-02-08T03:32:22.378Z,25.30
2019-02-08T03:34:56.277Z,28.13
2019-02-08T03:37:32.907Z,25.63
2019-02-08T03:40:02.696Z,26.70
2019-02-08T03:42:31.305Z,25.93
2019-02-08T03:45:02.734Z,27.73
2019-02-08T03:47:31.158Z,24.83
2019-02-08T03:50:11.498Z,26.60
2019-02-08T03:52:39.981Z,30.07
2019-02-08T03:55:15.907Z,26.50
2019-02-08T03:57:44.813Z,26.03
2019-02-08T04:00:26.065Z,27.07
2019-02-08T04:02:55.822Z,24.23
2019-02-08T04:05:31.928Z,29.97
2019-02-08T04:08:04.724Z,30.60
2019-02-08T04:10:35.765Z,30.17
2019-02-08T04:13:06.820Z,33.27
2019-02-08T04:18:09.965Z,28.57
2019-02-08T04:20:38.393Z,29.77
2019-02-08T04:23:06.814Z,34.97
2019-02-08T04:25:36.888Z,29.23
2019-02-08T04:28:07.981Z,34.67
2019-02-08T04:30:41.193Z,33.17
2019-02-08T04:33:09.014Z,32.47
2019-02-08T04:35:43.137Z,30.80
2019-02-08T04:38:19.004Z,30.83
2019-02-08T04:40:49.094Z,28.77
2019-02-08T04:43:22.969Z,37.00
2019-02-08T04:46:02.934Z,32.20
2019-02-08T04:48:33.051Z,27.43
2019-02-08T04:51:01.755Z,25.77
2019-02-08T04:53:32.909Z,27.23
2019-02-08T04:56:04.344Z,25.13
2019-02-08T04:58:48.850Z,25.57
2019-02-08T05:01:22.763Z,27.83
2019-02-08T05:03:52.826Z,30.37
2019-02-08T05:06:22.881Z,27.43
2019-02-08T05:08:51.566Z,23.97
2019-02-08T05:11:21.489Z,24.07
2019-02-08T05:13:53.867Z,27.23
2019-02-08T05:16:22.280Z,26.80
2019-02-08T05:19:06.954Z,21.83
2019-02-08T05:21:35.074Z,24.17
2019-02-08T05:24:13.855Z,27.23
2019-02-08T05:26:42.393Z,25.40
2019-02-08T05:29:13.526Z,27.90
2019-02-08T05:31:44.900Z,29.30
2019-02-08T05:34:19.382Z,26.13
2019-02-08T05:36:53.481Z,26.73
2019-02-08T05:39:21.916Z,24.87
2019-02-08T05:41:54.640Z,28.77
2019-02-08T05:44:23.066Z,25.70
2019-02-08T05:46:53.125Z,28.30
2019-02-08T05:49:24.058Z,29.37
2019-02-08T05:51:54.177Z,27.63
2019-02-08T05:54:22.649Z,23.50
2019-02-08T05:56:51.070Z,27.70
2019-02-08T05:59:21.134Z,30.40
2019-02-08T06:01:56.150Z,26.03
2019-02-08T06:04:26.266Z,31.07
2019-02-08T06:07:01.722Z,26.53
2019-02-08T06:09:32.617Z,24.80
2019-02-08T06:12:09.746Z,23.70
2019-02-08T06:14:38.241Z,25.97
2019-02-08T06:17:11.021Z,25.10
2019-02-08T06:19:48.472Z,25.57
2019-02-08T06:22:16.966Z,26.93
2019-02-08T06:24:51.530Z,23.93
2019-02-08T06:27:24.474Z,23.17
2019-02-08T06:29:55.954Z,19.53
2019-02-08T06:32:24.381Z,24.57
2019-02-08T06:34:57.481Z,24.53
2019-02-08T06:37:30.265Z,20.50
2019-02-08T06:39:58.908Z,21.07
2019-02-08T06:42:30.256Z,22.17
2019-02-08T06:45:01.710Z,25.37
2019-02-08T06:47:35.477Z,25.33
2019-02-08T06:50:06.049Z,25.97
2019-02-08T06:52:40.330Z,23.27
2019-02-08T06:55:15.979Z,22.57
2019-02-08T06:57:46.001Z,23.93
2019-02-08T07:00:29.225Z,26.00
2019-02-08T07:03:07.743Z,24.70
2019-02-08T07:05:56.862Z,25.40
2019-02-08T07:08:36.045Z,27.17
2019-02-08T07:11:06.172Z,21.43
2019-02-08T07:13:48.085Z,24.47
2019-02-08T07:16:26.424Z,24.70
2019-02-08T07:18:56.477Z,23.27
2019-02-08T07:21:44.493Z,26.83
2019-02-08T07:24:33.906Z,23.93
2019-02-08T07:27:06.737Z,25.50
2019-02-08T07:29:54.550Z,27.70
2019-02-08T07:32:35.107Z,28.13
2019-02-08T07:35:25.913Z,25.17
2019-02-08T07:38:00.255Z,27.10
2019-02-08T07:40:41.948Z,27.60
2019-02-08T07:43:28.866Z,24.73
2019-02-08T07:46:08.890Z,25.87
2019-02-08T07:49:02.782Z,23.00
2019-02-08T07:51:54.933Z,23.37
2019-02-08T07:54:25.026Z,24.20
2019-02-08T07:56:58.327Z,23.90
2019-02-08T07:59:35.529Z,24.93
2019-02-08T08:02:11.174Z,21.20
2019-02-08T08:05:04.399Z,23.10
2019-02-08T08:07:43.557Z,22.70
2019-02-08T08:10:34.190Z,22.97
2019-02-08T08:13:04.669Z,22.00
2019-02-08T08:15:34.852Z,23.70
2019-02-08T08:18:19.922Z,23.30
2019-02-08T08:21:14.929Z,22.77
2019-02-08T08:24:02.650Z,21.40
2019-02-08T08:26:33.529Z,21.63
2019-02-08T08:29:12.933Z,20.13
2019-02-08T08:31:47.853Z,19.57
2019-02-08T08:34:37.670Z,22.03
2019-02-08T08:37:37.266Z,18.00
2019-02-08T08:40:43.177Z,16.87
2019-02-08T08:43:21.866Z,17.60
2019-02-08T08:46:02.168Z,18.07
2019-02-08T08:48:53.654Z,17.13
2019-02-08T08:51:55.181Z,17.47
2019-02-08T08:54:58.589Z,22.70
2019-02-08T08:57:49.142Z,17.13
2019-02-08T09:00:20.858Z,19.00
2019-02-08T09:03:05.786Z,15.40
2019-02-08T09:05:50.677Z,15.47
2019-02-08T09:08:56.494Z,12.37
2019-02-08T09:11:44.205Z,15.37
2019-02-08T09:14:24.510Z,16.83
2019-02-08T09:17:07.181Z,19.17
2019-02-08T09:19:44.571Z,17.37
2019-02-08T09:22:52.698Z,13.37
2019-02-08T09:25:49.885Z,16.00
2019-02-08T09:28:23.975Z,14.47
2019-02-08T09:30:58.389Z,14.00
2019-02-08T09:33:32.779Z,15.87
2019-02-08T09:36:17.745Z,14.03
2019-02-08T09:39:08.452Z,14.63
2019-02-08T09:41:51.945Z,10.93
2019-02-08T09:44:59.237Z,11.43
2019-02-08T09:47:30.722Z,13.43
2019-02-08T09:50:22.644Z,15.07
2019-02-08T09:53:17.895Z,12.03
2019-02-08T09:56:15.307Z,11.93
2019-02-08T09:59:07.829Z,14.03
2019-02-08T10:01:58.217Z,14.40
2019-02-08T10:04:48.925Z,11.13
2019-02-08T10:07:39.912Z,14.67
2019-02-08T10:10:33.369Z,11.67
2019-02-08T10:13:21.429Z,10.77
2019-02-08T10:16:25.594Z,12.40
2019-02-08T10:19:31.116Z,12.70
2019-02-08T10:22:21.747Z,20.00
2019-02-08T10:25:15.299Z,13.43
2019-02-08T10:28:14.948Z,11.03
2019-02-08T10:31:20.355Z,11.77
2019-02-08T10:34:03.717Z,11.03
2019-02-08T10:37:01.932Z,8.40
2019-02-08T10:39:45.421Z,8.43
2019-02-08T10:42:39.396Z,8.47
2019-02-08T10:45:13.926Z,7.67
2019-02-08T10:48:00.317Z,6.53
2019-02-08T10:50:48.141Z,7.77
2019-02-08T10:53:54.317Z,7.30
2019-02-08T10:56:58.465Z,9.10
2019-02-08T10:59:48.042Z,10.23
2019-02-08T11:02:43.406Z,7.43
2019-02-08T11:05:37.397Z,8.47
2019-02-08T11:08:41.834Z,8.57
2019-02-08T11:11:49.638Z,10.63
2019-02-08T11:14:29.766Z,9.90
2019-02-08T11:17:34.693Z,8.07
2019-02-08T11:20:08.758Z,9.17
2019-02-08T11:22:38.770Z,9.13
2019-02-08T11:25:09.024Z,9.30
2019-02-08T11:27:37.461Z,8.37
2019-02-08T11:30:22.702Z,9.73
2019-02-08T11:32:51.130Z,9.77
2019-02-08T11:35:22.685Z,11.43
2019-02-08T11:37:53.869Z,9.30
2019-02-08T11:40:26.573Z,11.83
2019-02-08T11:43:04.157Z,14.10
2019-02-08T11:45:53.542Z,8.93
2019-02-08T11:48:26.393Z,9.03
2019-02-08T11:51:04.714Z,14.07
2019-02-08T11:53:30.542Z,11.33
2019-02-08T11:56:01.941Z,10.63
2019-02-08T11:58:33.061Z,12.43
2019-02-08T12:01:04.376Z,11.73
2019-02-08T12:03:32.793Z,11.93
2019-02-08T12:06:04.605Z,15.33
2019-02-08T12:08:34.325Z,12.93
2019-02-08T12:11:08.621Z,14.37
2019-02-08T12:13:39.750Z,12.87
2019-02-08T12:16:11.090Z,15.97
2019-02-08T12:18:42.219Z,13.23
2019-02-08T12:21:11.944Z,15.73
2019-02-08T12:23:40.341Z,16.00
2019-02-08T12:26:11.734Z,14.77
2019-02-08T12:28:40.156Z,15.63
2019-02-08T12:31:08.573Z,18.93
2019-02-08T12:33:39.941Z,15.20
2019-02-08T12:36:13.626Z,17.90
2019-02-08T12:38:42.838Z,18.17
2019-02-08T12:41:22.540Z,14.27
2019-02-08T12:43:50.953Z,15.23
2019-02-08T12:46:19.368Z,13.80
2019-02-08T12:48:55.065Z,14.80
2019-02-08T12:51:26.298Z,14.43
2019-02-08T12:54:04.866Z,14.13
2019-02-08T12:56:33.488Z,15.57
2019-02-08T12:59:10.796Z,14.13
2019-02-08T13:01:39.365Z,13.93
2019-02-08T13:04:08.931Z,13.80
2019-02-08T13:06:43.117Z,17.37
2019-02-08T13:09:13.229Z,15.90
2019-02-08T13:11:47.340Z,14.13
2019-02-08T13:14:18.777Z,14.67
2019-02-08T13:16:48.968Z,17.53
2019-02-08T13:19:26.143Z,11.33
2019-02-08T13:21:57.477Z,10.97
2019-02-08T13:24:30.485Z,13.70
2019-02-08T13:27:00.549Z,14.57
2019-02-08T13:29:28.962Z,11.50
2019-02-08T13:32:06.253Z,16.13
2019-02-08T13:34:45.353Z,15.53
2019-02-08T13:37:16.849Z,11.70
2019-02-08T13:39:48.206Z,17.23
2019-02-08T13:42:16.629Z,16.83
2019-02-08T13:44:47.982Z,16.97
2019-02-08T13:47:16.405Z,20.47
2019-02-08T13:49:47.609Z,17.87
2019-02-08T13:52:18.701Z,17.60
2019-02-08T13:54:52.477Z,18.97
2019-02-08T13:57:25.218Z,19.10
2019-02-08T13:59:53.712Z,17.27
2019-02-08T14:02:22.417Z,17.63
2019-02-08T14:04:54.858Z,21.60
2019-02-08T14:07:35.050Z,17.77
2019-02-08T14:10:05.198Z,21.17
2019-02-08T14:12:33.866Z,19.83
2019-02-08T14:15:10.051Z,18.27
2019-02-08T14:17:34.304Z,20.87
2019-02-08T14:20:09.912Z,20.10
2019-02-08T14:22:39.997Z,20.50
2019-02-08T14:25:20.573Z,21.67
2019-02-08T14:27:52.385Z,20.77
2019-02-08T14:30:34.440Z,22.63
2019-02-08T14:33:03.189Z,22.87
2019-02-08T14:35:31.700Z,19.97
2019-02-08T14:38:04.953Z,21.27
2019-02-08T14:40:36.347Z,20.67
2019-02-08T14:43:06.090Z,31.60
2019-02-08T14:45:34.512Z,29.53
2019-02-08T14:48:05.568Z,28.00
2019-02-08T14:50:35.613Z,23.13
2019-02-08T14:53:04.525Z,28.70
2019-02-08T14:55:41.766Z,20.53
2019-02-08T14:58:10.280Z,19.80
2019-02-08T15:00:38.937Z,21.40
2019-02-08T15:03:10.985Z,21.47
2019-02-08T15:05:41.962Z,23.63
2019-02-08T15:08:11.909Z,23.93
2019-02-08T15:10:49.145Z,25.40
2019-02-08T15:13:20.296Z,24.00
2019-02-08T15:15:48.716Z,22.23
2019-02-08T15:18:19.025Z,21.77
2019-02-08T15:20:56.477Z,23.57
2019-02-08T15:23:26.538Z,24.13
2019-02-08T15:25:58.083Z,23.30
2019-02-08T15:28:29.317Z,20.13
2019-02-08T15:31:01.009Z,23.33
2019-02-08T15:33:40.982Z,21.73
2019-02-08T15:36:09.397Z,22.27
2019-02-08T15:38:38.736Z,22.27
2019-02-08T15:41:07.403Z,18.30
2019-02-08T15:43:36.853Z,19.33
2019-02-08T15:46:05.346Z,23.37
2019-02-08T15:48:35.496Z,22.53
2019-02-08T15:51:04.119Z,24.37
2019-02-08T15:53:34.292Z,19.87
2019-02-08T15:56:11.677Z,24.63
2019-02-08T15:58:41.737Z,21.03
2019-02-08T16:01:10.698Z,22.43
2019-02-08T16:03:41.809Z,23.57
2019-02-08T16:06:10.467Z,24.20
2019-02-08T16:08:42.105Z,24.07
2019-02-08T16:11:10.797Z,21.13
2019-02-08T16:13:39.221Z,23.70
2019-02-08T16:16:09.540Z,23.53
2019-02-08T16:18:41.997Z,25.30
2019-02-08T16:21:13.188Z,23.40
2019-02-08T16:23:41.609Z,23.63
2019-02-08T16:26:10.304Z,22.20
2019-02-08T16:28:44.636Z,23.07
2019-02-08T16:31:16.104Z,22.50
2019-02-08T16:33:45.538Z,21.07
2019-02-08T16:36:15.799Z,25.93
2019-02-08T16:38:47.145Z,25.40
2019-02-08T16:41:15.564Z,24.60
2019-02-08T16:43:46.943Z,22.07
2019-02-08T16:46:18.317Z,41.57
2019-02-08T16:48:48.373Z,26.13
2019-02-08T16:51:16.809Z,22.60
2019-02-08T16:53:52.884Z,25.67
2019-02-08T16:56:18.038Z,18.13
2019-02-08T16:58:49.393Z,19.80
2019-02-08T17:01:19.453Z,19.93
2019-02-08T17:03:53.338Z,20.27
2019-02-08T17:06:30.239Z,20.40
2019-02-08T17:09:00.284Z,23.77
2019-02-08T17:11:28.705Z,23.30
2019-02-08T17:13:57.124Z,25.13
2019-02-08T17:16:25.549Z,22.50
2019-02-08T17:18:53.977Z,20.63
2019-02-08T17:21:22.400Z,23.97
2019-02-08T17:23:53.809Z,27.40
2019-02-08T17:26:22.245Z,24.50
2019-02-08T17:28:50.662Z,24.60
2019-02-08T17:31:23.809Z,29.30
2019-02-08T17:33:52.228Z,27.30
2019-02-08T17:36:23.329Z,24.63
2019-02-08T17:38:53.383Z,23.30
2019-02-08T17:41:26.119Z,24.70
2019-02-08T17:43:57.237Z,27.77
2019-02-08T17:46:25.666Z,23.93
2019-02-08T17:48:57.013Z,25.37
2019-02-08T17:51:29.824Z,22.97
2019-02-08T17:53:59.878Z,25.40
2019-02-08T17:56:43.644Z,23.37
2019-02-08T17:59:13.704Z,26.80
2019-02-08T18:01:42.132Z,25.67
2019-02-08T18:04:18.981Z,24.73
2019-02-08T18:06:47.407Z,25.47
2019-02-08T18:09:18.761Z,26.17
2019-02-08T18:11:49.845Z,29.60
2019-02-08T18:14:27.041Z,27.03
2019-02-08T18:16:55.456Z,26.57
2019-02-08T18:19:26.345Z,29.37
2019-02-08T18:21:57.968Z,29.60
2019-02-08T18:24:34.070Z,31.13
2019-02-08T18:27:11.482Z,29.53
2019-02-08T18:29:41.533Z,27.97
2019-02-08T18:32:12.690Z,27.67
2019-02-08T18:34:44.146Z,28.77
2019-02-08T18:37:15.233Z,29.20
2019-02-08T18:39:46.569Z,28.70
2019-02-08T18:42:15.001Z,24.90
2019-02-08T18:44:43.429Z,31.03
2019-02-08T18:47:14.261Z,30.30
2019-02-08T18:49:48.497Z,34.70
2019-02-08T18:52:18.593Z,31.37
2019-02-08T18:54:46.997Z,32.83
2019-02-08T18:57:17.308Z,32.20
2019-02-08T18:59:45.725Z,28.07
2019-02-08T19:02:17.127Z,32.30
2019-02-08T19:04:52.741Z,30.17
2019-02-08T19:07:21.167Z,29.67
2019-02-08T19:09:52.362Z,26.47
2019-02-08T19:12:26.301Z,27.60
2019-02-08T19:14:54.737Z,29.17
2019-02-08T19:17:26.116Z,27.90
2019-02-08T19:19:56.178Z,31.77
2019-02-08T19:22:27.997Z,28.60
2019-02-08T19:24:56.437Z,28.97
2019-02-08T19:27:24.853Z,31.43
2019-02-08T19:30:00.053Z,33.07
2019-02-08T19:32:36.082Z,30.27
2019-02-08T19:35:07.845Z,35.87
2019-02-08T19:37:39.031Z,33.37
2019-02-08T19:40:33.640Z,28.73
2019-02-08T19:43:04.601Z,28.97
2019-02-08T19:45:38.665Z,31.10
2019-02-08T19:48:08.649Z,29.27
2019-02-08T19:50:44.634Z,30.70
2019-02-08T19:53:20.813Z,26.27
2019-02-08T19:55:49.301Z,29.47
2019-02-08T19:58:19.085Z,29.87
2019-02-08T20:00:47.503Z,29.60
2019-02-08T20:03:24.006Z,29.30
2019-02-08T20:05:52.412Z,30.90
2019-02-08T20:08:29.360Z,30.73
2019-02-08T20:11:00.977Z,27.60
2019-02-08T20:13:29.486Z,28.27
2019-02-08T20:16:00.837Z,26.20
2019-02-08T20:18:29.256Z,30.00
2019-02-08T20:21:01.850Z,27.33
2019-02-08T20:23:31.930Z,26.87
2019-02-08T20:26:02.273Z,23.97
2019-02-08T20:28:33.389Z,27.67
2019-02-08T20:31:03.164Z,28.40
2019-02-08T20:33:31.664Z,24.00
2019-02-08T20:36:00.093Z,24.67
2019-02-08T20:38:32.187Z,23.47
2019-02-08T20:41:03.329Z,29.63
2019-02-08T20:43:31.994Z,25.70
2019-02-08T20:46:02.426Z,22.23
2019-02-08T20:48:32.451Z,23.00
2019-02-08T20:51:08.524Z,27.57
2019-02-08T20:53:39.990Z,28.10
2019-02-08T20:56:08.576Z,28.30
2019-02-08T20:58:50.418Z,26.57
2019-02-08T21:01:16.058Z,23.07
2019-02-08T21:03:47.237Z,24.53
2019-02-08T21:06:15.658Z,27.93
2019-02-08T21:08:49.827Z,27.90
2019-02-08T21:11:19.161Z,25.33
2019-02-08T21:13:50.550Z,25.97
2019-02-08T21:16:21.653Z,26.57
2019-02-08T21:18:55.706Z,26.73
2019-02-08T21:21:25.778Z,24.13
2019-02-08T21:23:58.641Z,24.10
2019-02-08T21:26:37.817Z,24.73
2019-02-08T21:29:09.460Z,31.00
2019-02-08T21:31:43.416Z,24.53
2019-02-08T21:34:19.368Z,24.63
2019-02-08T21:36:56.145Z,27.37
2019-02-08T21:39:27.525Z,25.37
2019-02-08T21:42:07.850Z,28.93
2019-02-08T21:44:42.212Z,23.07
2019-02-08T21:47:15.154Z,24.53
2019-02-08T21:49:41.033Z,22.97
2019-02-08T21:52:11.097Z,24.73
2019-02-08T21:54:47.693Z,30.20
2019-02-08T21:57:17.765Z,26.67
2019-02-08T21:59:46.190Z,26.73
2019-02-08T22:02:22.689Z,23.87
2019-02-08T22:04:59.545Z,21.80
2019-02-08T22:07:35.149Z,21.57
2019-02-08T22:10:09.636Z,22.67
2019-02-08T22:12:43.743Z,21.80
2019-02-08T22:15:17.906Z,25.80
2019-02-08T22:17:50.925Z,23.83
2019-02-08T22:20:23.632Z,24.03
2019-02-08T22:22:49.810Z,19.17
2019-02-08T22:25:20.956Z,21.47
2019-02-08T22:27:58.055Z,20.80
2019-02-08T22:30:29.876Z,21.97
2019-02-08T22:33:02.372Z,22.87
2019-02-08T22:35:44.137Z,23.67
2019-02-08T22:38:12.609Z,21.47
2019-02-08T22:40:48.448Z,20.10
2019-02-08T22:43:19.691Z,22.03
2019-02-08T22:45:55.678Z,23.50
2019-02-08T22:48:28.665Z,23.17
2019-02-08T22:50:59.529Z,22.50
2019-02-08T22:53:32.197Z,23.67
2019-02-08T22:56:00.656Z,24.87
2019-02-08T22:58:34.712Z,22.37
2019-02-08T23:01:06.205Z,22.60
2019-02-08T23:03:37.482Z,22.87
2019-02-08T23:06:12.932Z,22.20
2019-02-08T23:08:46.777Z,22.77
2019-02-08T23:11:20.319Z,23.37
2019-02-08T23:13:51.570Z,21.30
2019-02-08T23:16:28.084Z,20.43
2019-02-08T23:18:59.235Z,20.67
2019-02-08T23:21:29.290Z,23.00
2019-02-08T23:24:02.354Z,20.30
2019-02-08T23:26:30.779Z,24.80
2019-02-08T23:29:07.889Z,21.10
2019-02-08T23:31:36.405Z,22.17
2019-02-08T23:34:06.610Z,20.43
2019-02-08T23:36:37.687Z,26.13
2019-02-08T23:39:09.176Z,26.30
2019-02-08T23:41:37.597Z,25.43
2019-02-08T23:44:07.661Z,20.50
2019-02-08T23:46:41.693Z,21.63
2019-02-08T23:49:15.521Z,24.23
2019-02-08T23:51:49.912Z,25.80
2019-02-08T23:54:19.972Z,22.57
2019-02-08T23:56:53.865Z,22.10
2019-02-08T23:59:22.768Z,20.47
